Time,TemperatureF,DewpointF,PressureIn,WindDirection,WindDirectionDegrees,WindSpeedMPH,WindSpeedGustMPH,Humidity,HourlyPrecipIn,Conditions,Clouds,dailyrainin,SolarRadiationWatts/m^2,SoftwareType,DateUTC
2013-07-15 00:22:00,58.0,57.0,-100.00,East,80,1.0,4.0,98,0.00,,,0.08,0.000000,,2013-07-15 06:22:00,
2013-07-15 00:32:00,58.0,57.0,-100.00,East,80,1.0,4.0,98,0.00,,,0.08,0.000000,,2013-07-15 06:32:00,
2013-07-15 00:42:00,58.0,57.0,-100.00,East,80,1.0,4.0,98,0.00,,,0.08,0.000000,,2013-07-15 06:42:00,
2013-07-15 00:53:00,58.0,57.0,-100.00,East,80,1.0,4.0,98,0.00,,,0.08,0.000000,,2013-07-15 06:53:00,
2013-07-15 01:21:00,59.0,58.0,-100.00,WNW,295,0.0,2.0,98,0.00,,,0.08,0.000000,,2013-07-15 07:21:00,
2013-07-15 01:33:00,59.0,58.0,-100.00,WNW,295,0.0,2.0,98,0.00,,,0.08,0.000000,,2013-07-15 07:33:00,
2013-07-15 01:43:00,59.0,58.0,-100.00,WNW,295,0.0,2.0,98,0.00,,,0.08,0.000000,,2013-07-15 07:43:00,
2013-07-15 01:53:00,59.0,58.0,-100.00,WNW,295,0.0,2.0,98,0.00,,,0.08,0.000000,,2013-07-15 07:53:00,
2013-07-15 02:22:00,59.0,58.0,-100.00,WNW,292,0.0,2.0,98,0.00,,,0.03,0.000000,,2013-07-15 08:22:00,
2013-07-15 02:32:00,59.0,58.0,-100.00,WNW,292,0.0,2.0,98,0.00,,,0.03,0.000000,,2013-07-15 08:32:00,
2013-07-15 02:43:00,59.0,58.0,-100.00,WNW,292,0.0,2.0,98,0.00,,,0.03,0.000000,,2013-07-15 08:43:00,
2013-07-15 02:53:00,59.0,58.0,-100.00,WNW,292,0.0,2.0,98,0.00,,,0.03,0.000000,,2013-07-15 08:53:00,
2013-07-15 03:22:00,60.0,59.0,-100.00,NNE,14,0.0,2.0,98,0.00,,,0.03,0.000000,,2013-07-15 09:22:00,
2013-07-15 03:32:00,60.0,59.0,-100.00,NNE,14,0.0,2.0,98,0.00,,,0.03,0.000000,,2013-07-15 09:32:00,
2013-07-15 03:43:00,60.0,59.0,-100.00,NNE,14,0.0,2.0,98,0.00,,,0.03,0.000000,,2013-07-15 09:43:00,
2013-07-15 03:52:00,60.0,59.0,-100.00,NNE,14,0.0,2.0,98,0.00,,,0.03,0.000000,,2013-07-15 09:52:00,
2013-07-15 04:22:00,58.0,57.0,-100.00,WNW,295,2.0,2.0,98,0.00,,,0.03,0.000000,,2013-07-15 10:22:00,
2013-07-15 04:32:00,58.0,57.0,-100.00,WNW,295,2.0,2.0,98,0.00,,,0.03,0.000000,,2013-07-15 10:32:00,
2013-07-15 04:43:00,58.0,57.0,-100.00,WNW,295,2.0,2.0,98,0.00,,,0.03,0.000000,,2013-07-15 10:43:00,
2013-07-15 04:52:00,58.0,57.0,-100.00,WNW,295,2.0,2.0,98,0.00,,,0.03,0.000000,,2013-07-15 10:52:00,
2013-07-15 05:22:00,56.0,55.0,-100.00,NNW,338,0.0,2.0,98,0.00,,,0.03,0.000000,,2013-07-15 11:22:00,
2013-07-15 05:32:00,56.0,55.0,-100.00,NNW,338,0.0,2.0,98,0.00,,,0.03,0.000000,,2013-07-15 11:32:00,
2013-07-15 05:42:00,56.0,55.0,-100.00,NNW,338,0.0,2.0,98,0.00,,,0.03,0.000000,,2013-07-15 11:42:00,
2013-07-15 05:52:00,56.0,55.0,-100.00,NNW,338,0.0,2.0,98,0.00,,,0.03,0.000000,,2013-07-15 11:52:00,
2013-07-15 06:22:00,55.0,54.0,-100.00,NNW,329,1.0,3.0,98,0.00,,,0.03,6.000000,,2013-07-15 12:22:00,
2013-07-15 06:32:00,55.0,54.0,-100.00,NNW,329,1.0,3.0,98,0.00,,,0.03,6.000000,,2013-07-15 12:32:00,
2013-07-15 06:42:00,55.0,54.0,-100.00,NNW,329,1.0,3.0,98,0.00,,,0.03,6.000000,,2013-07-15 12:42:00,
2013-07-15 06:52:00,55.0,54.0,-100.00,NNW,329,1.0,3.0,98,0.00,,,0.03,6.000000,,2013-07-15 12:52:00,
2013-07-15 07:33:00,58.0,57.0,-100.00,North,1,2.0,3.0,98,0.00,,,0.03,44.000000,,2013-07-15 13:33:00,
2013-07-15 07:43:00,58.0,57.0,-100.00,North,1,2.0,3.0,98,0.00,,,0.03,44.000000,,2013-07-15 13:43:00,
2013-07-15 07:53:00,58.0,57.0,-100.00,North,1,2.0,3.0,98,0.00,,,0.03,44.000000,,2013-07-15 13:53:00,
2013-07-15 08:22:00,64.0,61.0,-100.00,SE,139,7.0,11.0,89,0.00,,,0.03,275.000000,,2013-07-15 14:22:00,
2013-07-15 08:33:00,64.0,61.0,-100.00,SE,139,7.0,11.0,89,0.00,,,0.03,275.000000,,2013-07-15 14:33:00,
2013-07-15 08:42:00,64.0,61.0,-100.00,SE,139,7.0,11.0,89,0.00,,,0.03,275.000000,,2013-07-15 14:42:00,
2013-07-15 08:56:00,64.0,61.0,-100.00,SE,139,7.0,11.0,89,0.00,,,0.03,275.000000,,2013-07-15 14:56:00,
2013-07-15 09:26:00,68.0,63.0,-100.00,SSE,150,8.0,12.0,83,0.00,,,0.03,464.000000,,2013-07-15 15:26:00,
2013-07-15 09:37:00,68.0,63.0,-100.00,SSE,150,8.0,12.0,83,0.00,,,0.03,464.000000,,2013-07-15 15:37:00,
2013-07-15 09:45:00,68.0,63.0,-100.00,SSE,150,8.0,12.0,83,0.00,,,0.03,464.000000,,2013-07-15 15:45:00,
2013-07-15 09:53:00,68.0,63.0,-100.00,SSE,150,8.0,12.0,83,0.00,,,0.03,464.000000,,2013-07-15 15:53:00,
2013-07-15 10:24:00,74.0,64.0,-100.00,SSE,151,9.0,14.0,70,0.00,,,0.03,631.000000,,2013-07-15 16:24:00,
2013-07-15 10:32:00,74.0,64.0,-100.00,SSE,151,9.0,14.0,70,0.00,,,0.03,631.000000,,2013-07-15 16:32:00,
2013-07-15 10:45:00,74.0,64.0,-100.00,SSE,151,9.0,14.0,70,0.00,,,0.03,631.000000,,2013-07-15 16:45:00,
2013-07-15 10:52:00,74.0,64.0,-100.00,SSE,151,9.0,14.0,70,0.00,,,0.03,631.000000,,2013-07-15 16:52:00,
2013-07-15 11:36:00,76.0,60.0,-100.00,SSE,167,11.0,22.0,57,0.00,,,0.03,790.000000,,2013-07-15 17:36:00,
2013-07-15 11:47:00,76.0,60.0,-100.00,SSE,167,11.0,22.0,57,0.00,,,0.03,790.000000,,2013-07-15 17:47:00,
2013-07-15 11:55:00,76.0,60.0,-100.00,SSE,167,11.0,22.0,57,0.00,,,0.03,790.000000,,2013-07-15 17:55:00,
2013-07-15 12:45:00,77.0,60.0,-100.00,SSE,162,10.0,20.0,56,0.00,,,0.03,878.000000,,2013-07-15 18:45:00,
2013-07-15 12:55:00,77.0,60.0,-100.00,SSE,162,10.0,20.0,56,0.00,,,0.03,878.000000,,2013-07-15 18:55:00,
2013-07-15 13:24:00,81.0,60.0,-100.00,South,186,10.0,19.0,49,0.00,,,0.03,949.000000,,2013-07-15 19:24:00,
2013-07-15 13:35:00,81.0,60.0,-100.00,South,186,10.0,19.0,49,0.00,,,0.03,949.000000,,2013-07-15 19:35:00,
2013-07-15 13:46:00,81.0,60.0,-100.00,South,186,10.0,19.0,49,0.00,,,0.03,949.000000,,2013-07-15 19:46:00,
2013-07-15 14:27:00,82.0,60.0,-100.00,SSE,162,9.0,18.0,48,0.00,,,0.03,948.000000,,2013-07-15 20:27:00,
2013-07-15 14:36:00,82.0,60.0,-100.00,SSE,162,9.0,18.0,48,0.00,,,0.03,948.000000,,2013-07-15 20:36:00,
2013-07-15 14:43:00,82.0,60.0,-100.00,SSE,162,9.0,18.0,48,0.00,,,0.03,948.000000,,2013-07-15 20:43:00,
2013-07-15 14:54:00,82.0,60.0,-100.00,SSE,162,9.0,18.0,48,0.00,,,0.03,948.000000,,2013-07-15 20:54:00,
2013-07-15 15:37:00,81.0,58.0,-100.00,SSE,162,10.0,21.0,46,0.00,,,0.03,712.000000,,2013-07-15 21:37:00,
2013-07-15 15:47:00,81.0,58.0,-100.00,SSE,162,10.0,21.0,46,0.00,,,0.03,712.000000,,2013-07-15 21:47:00,
2013-07-15 15:55:00,81.0,58.0,-100.00,SSE,162,10.0,21.0,46,0.00,,,0.03,712.000000,,2013-07-15 21:55:00,
2013-07-15 16:22:00,82.0,60.0,-100.00,SSE,167,11.0,24.0,47,0.00,,,0.02,720.000000,,2013-07-15 22:22:00,
2013-07-15 16:34:00,82.0,60.0,-100.00,SSE,167,11.0,24.0,47,0.00,,,0.02,720.000000,,2013-07-15 22:34:00,
2013-07-15 16:43:00,82.0,60.0,-100.00,SSE,167,11.0,24.0,47,0.00,,,0.02,720.000000,,2013-07-15 22:43:00,
2013-07-15 16:54:00,82.0,60.0,-100.00,SSE,167,11.0,24.0,47,0.00,,,0.02,720.000000,,2013-07-15 22:54:00,
2013-07-15 17:46:00,82.0,61.0,-100.00,SSE,160,11.0,24.0,50,0.00,,,0.01,443.000000,,2013-07-15 23:46:00,
2013-07-15 17:53:00,82.0,61.0,-100.00,SSE,160,11.0,24.0,50,0.00,,,0.01,443.000000,,2013-07-15 23:53:00,
2013-07-15 18:25:00,80.0,61.0,-100.00,SSE,157,12.0,21.0,52,0.00,,,0.01,402.000000,,2013-07-16 00:25:00,
2013-07-15 18:33:00,80.0,61.0,-100.00,SSE,157,12.0,21.0,52,0.00,,,0.01,402.000000,,2013-07-16 00:33:00,
2013-07-15 18:45:00,80.0,61.0,-100.00,SSE,157,12.0,21.0,52,0.00,,,0.01,402.000000,,2013-07-16 00:45:00,
2013-07-15 18:53:00,80.0,61.0,-100.00,SSE,157,12.0,21.0,52,0.00,,,0.01,402.000000,,2013-07-16 00:53:00,
2013-07-15 19:26:00,78.0,59.0,-100.00,SSE,154,9.0,17.0,53,0.00,,,0.01,238.000000,,2013-07-16 01:26:00,
2013-07-15 19:36:00,78.0,59.0,-100.00,SSE,154,9.0,17.0,53,0.00,,,0.01,238.000000,,2013-07-16 01:36:00,
2013-07-15 19:47:00,78.0,59.0,-100.00,SSE,154,9.0,17.0,53,0.00,,,0.01,238.000000,,2013-07-16 01:47:00,
2013-07-15 19:56:00,78.0,59.0,-100.00,SSE,154,9.0,17.0,53,0.00,,,0.01,238.000000,,2013-07-16 01:56:00,
2013-07-15 20:27:00,76.0,58.0,-100.00,SSE,155,6.0,13.0,54,0.00,,,0.01,39.000000,,2013-07-16 02:27:00,
2013-07-15 20:35:00,76.0,58.0,-100.00,SSE,155,6.0,13.0,54,0.00,,,0.01,39.000000,,2013-07-16 02:35:00,
2013-07-15 20:47:00,76.0,58.0,-100.00,SSE,155,6.0,13.0,54,0.00,,,0.01,39.000000,,2013-07-16 02:47:00,
2013-07-15 20:54:00,76.0,58.0,-100.00,SSE,155,6.0,13.0,54,0.00,,,0.01,39.000000,,2013-07-16 02:54:00,
2013-07-15 21:37:00,73.0,57.0,-100.00,SSE,162,6.0,9.0,57,0.00,,,0.01,10.000000,,2013-07-16 03:37:00,
2013-07-15 21:47:00,73.0,57.0,-100.00,SSE,162,6.0,9.0,57,0.00,,,0.01,10.000000,,2013-07-16 03:47:00,
2013-07-15 21:55:00,73.0,57.0,-100.00,SSE,162,6.0,9.0,57,0.00,,,0.01,10.000000,,2013-07-16 03:55:00,